sensor_id;sensor_type;location;lat;lon;timestamp;P1;durP1;ratioP1;P2;durP2;ratioP2
78664;SDS011;67981;51.022;-2.870;2023-07-28T00:02:01;0.95;;;0.70;;
78664;SDS011;67981;51.022;-2.870;2023-07-28T00:04:26;1.58;;;0.57;;
78664;SDS011;67981;51.022;-2.870;2023-07-28T00:06:51;1.38;;;0.50;;
78664;SDS011;67981;51.022;-2.870;2023-07-28T00:09:17;1.48;;;0.73;;
78664;SDS011;67981;51.022;-2.870;2023-07-28T00:11:42;1.20;;;0.50;;
78664;SDS011;67981;51.022;-2.870;2023-07-28T00:14:08;1.73;;;0.50;;
78664;SDS011;67981;51.022;-2.870;2023-07-28T00:16:33;1.05;;;0.50;;
78664;SDS011;67981;51.022;-2.870;2023-07-28T00:18:58;2.65;;;0.60;;
78664;SDS011;67981;51.022;-2.870;2023-07-28T00:21:25;1.37;;;0.60;;
78664;SDS011;67981;51.022;-2.870;2023-07-28T00:23:51;1.27;;;0.63;;
78664;SDS011;67981;51.022;-2.870;2023-07-28T00:26:16;1.52;;;0.82;;
78664;SDS011;67981;51.022;-2.870;2023-07-28T00:28:42;1.77;;;0.55;;
78664;SDS011;67981;51.022;-2.870;2023-07-28T00:31:07;1.92;;;0.95;;
78664;SDS011;67981;51.022;-2.870;2023-07-28T00:33:32;1.20;;;0.50;;
78664;SDS011;67981;51.022;-2.870;2023-07-28T00:35:58;2.55;;;0.90;;
78664;SDS011;67981;51.022;-2.870;2023-07-28T00:38:23;2.53;;;0.70;;
78664;SDS011;67981;51.022;-2.870;2023-07-28T00:40:48;1.33;;;0.52;;
78664;SDS011;67981;51.022;-2.870;2023-07-28T00:43:14;1.55;;;0.77;;
78664;SDS011;67981;51.022;-2.870;2023-07-28T00:45:39;1.85;;;0.55;;
78664;SDS011;67981;51.022;-2.870;2023-07-28T00:48:05;2.33;;;0.60;;
78664;SDS011;67981;51.022;-2.870;2023-07-28T00:50:37;1.55;;;1.13;;
78664;SDS011;67981;51.022;-2.870;2023-07-28T00:53:03;1.80;;;0.88;;
78664;SDS011;67981;51.022;-2.870;2023-07-28T00:55:28;0.85;;;0.50;;
78664;SDS011;67981;51.022;-2.870;2023-07-28T00:57:54;1.17;;;0.50;;
78664;SDS011;67981;51.022;-2.870;2023-07-28T01:00:20;1.60;;;0.77;;
78664;SDS011;67981;51.022;-2.870;2023-07-28T01:02:45;1.88;;;1.55;;
78664;SDS011;67981;51.022;-2.870;2023-07-28T01:05:11;1.95;;;0.95;;
78664;SDS011;67981;51.022;-2.870;2023-07-28T01:07:39;3.60;;;0.90;;
78664;SDS011;67981;51.022;-2.870;2023-07-28T01:10:22;1.60;;;0.90;;
78664;SDS011;67981;51.022;-2.870;2023-07-28T01:12:51;2.17;;;1.05;;
78664;SDS011;67981;51.022;-2.870;2023-07-28T01:15:16;2.60;;;1.00;;
78664;SDS011;67981;51.022;-2.870;2023-07-28T01:17:42;1.30;;;0.70;;
78664;SDS011;67981;51.022;-2.870;2023-07-28T01:20:07;2.90;;;0.73;;
78664;SDS011;67981;51.022;-2.870;2023-07-28T01:28:04;2.47;;;0.80;;
78664;SDS011;67981;51.022;-2.870;2023-07-28T01:30:30;1.25;;;0.63;;
78664;SDS011;67981;51.022;-2.870;2023-07-28T01:32:57;2.33;;;0.80;;
78664;SDS011;67981;51.022;-2.870;2023-07-28T01:35:23;0.93;;;0.50;;
78664;SDS011;67981;51.022;-2.870;2023-07-28T01:37:48;0.80;;;0.43;;
78664;SDS011;67981;51.022;-2.870;2023-07-28T01:40:16;1.20;;;0.68;;
78664;SDS011;67981;51.022;-2.870;2023-07-28T01:42:42;1.30;;;0.57;;
78664;SDS011;67981;51.022;-2.870;2023-07-28T01:45:08;2.33;;;0.55;;
78664;SDS011;67981;51.022;-2.870;2023-07-28T01:47:34;0.90;;;0.40;;
78664;SDS011;67981;51.022;-2.870;2023-07-28T01:49:59;1.73;;;0.60;;
78664;SDS011;67981;51.022;-2.870;2023-07-28T01:52:24;0.97;;;0.40;;
78664;SDS011;67981;51.022;-2.870;2023-07-28T01:54:50;0.82;;;0.57;;
78664;SDS011;67981;51.022;-2.870;2023-07-28T01:57:15;0.77;;;0.32;;
78664;SDS011;67981;51.022;-2.870;2023-07-28T01:59:42;1.73;;;0.57;;
78664;SDS011;67981;51.022;-2.870;2023-07-28T02:02:07;2.35;;;0.50;;
78664;SDS011;67981;51.022;-2.870;2023-07-28T02:04:33;2.22;;;1.00;;
78664;SDS011;67981;51.022;-2.870;2023-07-28T02:06:58;1.17;;;0.80;;
78664;SDS011;67981;51.022;-2.870;2023-07-28T02:09:23;0.90;;;0.40;;
78664;SDS011;67981;51.022;-2.870;2023-07-28T02:11:49;1.50;;;0.65;;
78664;SDS011;67981;51.022;-2.870;2023-07-28T02:14:14;1.20;;;0.57;;
78664;SDS011;67981;51.022;-2.870;2023-07-28T02:16:39;1.33;;;0.63;;
78664;SDS011;67981;51.022;-2.870;2023-07-28T02:19:05;1.55;;;0.75;;
78664;SDS011;67981;51.022;-2.870;2023-07-28T02:21:31;0.95;;;0.50;;
78664;SDS011;67981;51.022;-2.870;2023-07-28T02:23:56;0.93;;;0.40;;
78664;SDS011;67981;51.022;-2.870;2023-07-28T02:26:22;1.15;;;0.60;;
78664;SDS011;67981;51.022;-2.870;2023-07-28T02:28:47;1.57;;;0.70;;
78664;SDS011;67981;51.022;-2.870;2023-07-28T02:31:12;0.50;;;0.40;;
78664;SDS011;67981;51.022;-2.870;2023-07-28T02:33:38;1.35;;;0.57;;
78664;SDS011;67981;51.022;-2.870;2023-07-28T02:36:04;1.65;;;0.50;;
78664;SDS011;67981;51.022;-2.870;2023-07-28T02:38:29;1.30;;;0.50;;
78664;SDS011;67981;51.022;-2.870;2023-07-28T02:40:55;2.50;;;0.82;;
78664;SDS011;67981;51.022;-2.870;2023-07-28T02:43:20;0.73;;;0.47;;
78664;SDS011;67981;51.022;-2.870;2023-07-28T02:45:53;1.15;;;0.60;;
78664;SDS011;67981;51.022;-2.870;2023-07-28T02:48:19;1.23;;;0.45;;
78664;SDS011;67981;51.022;-2.870;2023-07-28T02:50:47;1.33;;;0.60;;
78664;SDS011;67981;51.022;-2.870;2023-07-28T02:53:13;1.20;;;0.40;;
78664;SDS011;67981;51.022;-2.870;2023-07-28T02:55:42;0.98;;;0.43;;
78664;SDS011;67981;51.022;-2.870;2023-07-28T02:58:12;2.75;;;0.75;;
78664;SDS011;67981;51.022;-2.870;2023-07-28T03:00:38;0.70;;;0.60;;
78664;SDS011;67981;51.022;-2.870;2023-07-28T03:03:04;0.80;;;0.57;;
78664;SDS011;67981;51.022;-2.870;2023-07-28T03:05:30;2.70;;;0.70;;
78664;SDS011;67981;51.022;-2.870;2023-07-28T03:07:56;1.13;;;0.40;;
78664;SDS011;67981;51.022;-2.870;2023-07-28T03:10:22;1.30;;;0.52;;
78664;SDS011;67981;51.022;-2.870;2023-07-28T03:12:47;0.80;;;0.60;;
78664;SDS011;67981;51.022;-2.870;2023-07-28T03:15:13;0.63;;;0.40;;
78664;SDS011;67981;51.022;-2.870;2023-07-28T03:17:38;1.63;;;0.50;;
78664;SDS011;67981;51.022;-2.870;2023-07-28T03:20:04;0.88;;;0.52;;
78664;SDS011;67981;51.022;-2.870;2023-07-28T03:22:29;1.38;;;0.60;;
78664;SDS011;67981;51.022;-2.870;2023-07-28T03:24:55;1.13;;;0.40;;
78664;SDS011;67981;51.022;-2.870;2023-07-28T03:27:21;1.52;;;0.60;;
78664;SDS011;67981;51.022;-2.870;2023-07-28T03:29:46;1.13;;;0.50;;
78664;SDS011;67981;51.022;-2.870;2023-07-28T03:32:12;1.30;;;0.70;;
78664;SDS011;67981;51.022;-2.870;2023-07-28T03:34:37;0.93;;;0.47;;
78664;SDS011;67981;51.022;-2.870;2023-07-28T03:37:02;2.22;;;0.90;;
78664;SDS011;67981;51.022;-2.870;2023-07-28T03:39:28;1.80;;;0.60;;
78664;SDS011;67981;51.022;-2.870;2023-07-28T03:41:54;2.38;;;0.90;;
78664;SDS011;67981;51.022;-2.870;2023-07-28T03:44:20;1.92;;;1.10;;
78664;SDS011;67981;51.022;-2.870;2023-07-28T03:46:45;0.95;;;0.52;;
78664;SDS011;67981;51.022;-2.870;2023-07-28T03:49:11;0.80;;;0.40;;
78664;SDS011;67981;51.022;-2.870;2023-07-28T03:51:37;3.58;;;0.40;;
78664;SDS011;67981;51.022;-2.870;2023-07-28T03:54:02;1.60;;;0.55;;
78664;SDS011;67981;51.022;-2.870;2023-07-28T03:56:28;0.93;;;0.50;;
78664;SDS011;67981;51.022;-2.870;2023-07-28T03:58:53;0.77;;;0.50;;
78664;SDS011;67981;51.022;-2.870;2023-07-28T04:01:19;0.63;;;0.38;;
78664;SDS011;67981;51.022;-2.870;2023-07-28T04:03:46;2.63;;;0.70;;
78664;SDS011;67981;51.022;-2.870;2023-07-28T04:06:12;1.15;;;0.57;;
78664;SDS011;67981;51.022;-2.870;2023-07-28T04:08:38;1.23;;;0.55;;
78664;SDS011;67981;51.022;-2.870;2023-07-28T04:11:04;1.48;;;0.40;;
78664;SDS011;67981;51.022;-2.870;2023-07-28T04:13:29;1.08;;;0.65;;
78664;SDS011;67981;51.022;-2.870;2023-07-28T04:15:55;1.67;;;0.60;;
78664;SDS011;67981;51.022;-2.870;2023-07-28T04:18:20;2.45;;;0.70;;
78664;SDS011;67981;51.022;-2.870;2023-07-28T04:20:45;1.38;;;0.60;;
78664;SDS011;67981;51.022;-2.870;2023-07-28T04:23:11;1.00;;;0.57;;
78664;SDS011;67981;51.022;-2.870;2023-07-28T04:25:37;1.80;;;0.82;;
78664;SDS011;67981;51.022;-2.870;2023-07-28T04:28:02;4.72;;;0.73;;
78664;SDS011;67981;51.022;-2.870;2023-07-28T04:30:28;0.95;;;0.50;;
78664;SDS011;67981;51.022;-2.870;2023-07-28T04:32:53;1.70;;;0.60;;
78664;SDS011;67981;51.022;-2.870;2023-07-28T04:35:19;1.52;;;0.70;;
78664;SDS011;67981;51.022;-2.870;2023-07-28T04:37:45;2.15;;;1.75;;
78664;SDS011;67981;51.022;-2.870;2023-07-28T04:40:10;1.55;;;0.63;;
78664;SDS011;67981;51.022;-2.870;2023-07-28T04:42:36;3.22;;;0.80;;
78664;SDS011;67981;51.022;-2.870;2023-07-28T04:45:02;1.38;;;0.65;;
78664;SDS011;67981;51.022;-2.870;2023-07-28T04:47:28;2.55;;;0.60;;
78664;SDS011;67981;51.022;-2.870;2023-07-28T04:49:53;4.05;;;1.10;;
78664;SDS011;67981;51.022;-2.870;2023-07-28T04:52:19;1.58;;;0.93;;
78664;SDS011;67981;51.022;-2.870;2023-07-28T04:54:44;1.00;;;0.73;;
78664;SDS011;67981;51.022;-2.870;2023-07-28T04:57:09;1.65;;;0.65;;
78664;SDS011;67981;51.022;-2.870;2023-07-28T04:59:35;2.30;;;0.98;;
78664;SDS011;67981;51.022;-2.870;2023-07-28T05:02:00;1.65;;;0.77;;
78664;SDS011;67981;51.022;-2.870;2023-07-28T05:04:26;2.35;;;0.73;;
78664;SDS011;67981;51.022;-2.870;2023-07-28T05:06:51;1.58;;;0.77;;
78664;SDS011;67981;51.022;-2.870;2023-07-28T05:09:17;2.30;;;0.70;;
78664;SDS011;67981;51.022;-2.870;2023-07-28T05:11:42;1.42;;;0.57;;
78664;SDS011;67981;51.022;-2.870;2023-07-28T05:14:08;1.23;;;0.65;;
78664;SDS011;67981;51.022;-2.870;2023-07-28T05:16:34;2.17;;;0.90;;
78664;SDS011;67981;51.022;-2.870;2023-07-28T05:18:59;2.38;;;0.82;;
78664;SDS011;67981;51.022;-2.870;2023-07-28T05:21:25;2.10;;;1.08;;
78664;SDS011;67981;51.022;-2.870;2023-07-28T05:23:50;2.05;;;0.80;;
78664;SDS011;67981;51.022;-2.870;2023-07-28T05:26:16;1.77;;;1.05;;
78664;SDS011;67981;51.022;-2.870;2023-07-28T05:28:41;2.45;;;1.20;;
78664;SDS011;67981;51.022;-2.870;2023-07-28T05:31:07;2.33;;;0.70;;
78664;SDS011;67981;51.022;-2.870;2023-07-28T05:33:33;1.35;;;0.80;;
78664;SDS011;67981;51.022;-2.870;2023-07-28T05:36:08;2.28;;;1.00;;
78664;SDS011;67981;51.022;-2.870;2023-07-28T05:40:59;3.47;;;1.37;;
78664;SDS011;67981;51.022;-2.870;2023-07-28T05:43:28;2.65;;;1.20;;
78664;SDS011;67981;51.022;-2.870;2023-07-28T05:45:54;3.97;;;1.20;;
78664;SDS011;67981;51.022;-2.870;2023-07-28T05:48:21;3.10;;;1.80;;
78664;SDS011;67981;51.022;-2.870;2023-07-28T05:50:47;2.85;;;1.48;;
78664;SDS011;67981;51.022;-2.870;2023-07-28T05:53:12;2.33;;;1.60;;
78664;SDS011;67981;51.022;-2.870;2023-07-28T05:55:38;3.22;;;1.70;;
78664;SDS011;67981;51.022;-2.870;2023-07-28T05:58:04;3.58;;;1.35;;
78664;SDS011;67981;51.022;-2.870;2023-07-28T06:00:30;2.90;;;1.45;;
78664;SDS011;67981;51.022;-2.870;2023-07-28T06:02:56;3.75;;;1.45;;
78664;SDS011;67981;51.022;-2.870;2023-07-28T06:05:22;2.40;;;1.35;;
78664;SDS011;67981;51.022;-2.870;2023-07-28T06:07:47;3.38;;;1.60;;
78664;SDS011;67981;51.022;-2.870;2023-07-28T06:10:12;3.15;;;1.88;;
78664;SDS011;67981;51.022;-2.870;2023-07-28T06:12:38;4.63;;;1.40;;
78664;SDS011;67981;51.022;-2.870;2023-07-28T06:15:03;4.15;;;1.50;;
78664;SDS011;67981;51.022;-2.870;2023-07-28T06:17:29;3.60;;;1.40;;
78664;SDS011;67981;51.022;-2.870;2023-07-28T06:19:55;3.45;;;1.25;;
78664;SDS011;67981;51.022;-2.870;2023-07-28T06:22:21;2.75;;;1.70;;
78664;SDS011;67981;51.022;-2.870;2023-07-28T06:24:46;4.55;;;1.70;;
78664;SDS011;67981;51.022;-2.870;2023-07-28T06:27:11;2.53;;;1.40;;
78664;SDS011;67981;51.022;-2.870;2023-07-28T06:29:37;2.63;;;1.33;;
78664;SDS011;67981;51.022;-2.870;2023-07-28T06:32:02;3.08;;;1.20;;
78664;SDS011;67981;51.022;-2.870;2023-07-28T06:34:28;3.47;;;1.05;;
78664;SDS011;67981;51.022;-2.870;2023-07-28T06:36:53;2.30;;;1.05;;
78664;SDS011;67981;51.022;-2.870;2023-07-28T06:39:19;3.50;;;1.25;;
78664;SDS011;67981;51.022;-2.870;2023-07-28T06:41:44;5.28;;;1.80;;
78664;SDS011;67981;51.022;-2.870;2023-07-28T06:44:10;2.47;;;1.30;;
78664;SDS011;67981;51.022;-2.870;2023-07-28T06:46:35;2.78;;;1.10;;
78664;SDS011;67981;51.022;-2.870;2023-07-28T06:49:00;2.20;;;1.10;;
78664;SDS011;67981;51.022;-2.870;2023-07-28T06:51:26;2.67;;;1.20;;
78664;SDS011;67981;51.022;-2.870;2023-07-28T06:53:51;3.00;;;1.60;;
78664;SDS011;67981;51.022;-2.870;2023-07-28T06:56:17;3.00;;;1.40;;
78664;SDS011;67981;51.022;-2.870;2023-07-28T06:58:42;2.35;;;1.40;;
78664;SDS011;67981;51.022;-2.870;2023-07-28T07:01:07;2.88;;;1.20;;
78664;SDS011;67981;51.022;-2.870;2023-07-28T07:03:36;2.30;;;1.05;;
78664;SDS011;67981;51.022;-2.870;2023-07-28T07:06:01;3.88;;;1.40;;
78664;SDS011;67981;51.022;-2.870;2023-07-28T07:08:27;4.55;;;1.42;;
78664;SDS011;67981;51.022;-2.870;2023-07-28T07:10:53;2.90;;;1.20;;
78664;SDS011;67981;51.022;-2.870;2023-07-28T07:13:18;3.13;;;1.08;;
78664;SDS011;67981;51.022;-2.870;2023-07-28T07:15:44;2.83;;;1.40;;
78664;SDS011;67981;51.022;-2.870;2023-07-28T07:18:10;3.03;;;1.55;;
78664;SDS011;67981;51.022;-2.870;2023-07-28T07:20:36;3.95;;;1.50;;
78664;SDS011;67981;51.022;-2.870;2023-07-28T07:23:03;2.33;;;1.10;;
78664;SDS011;67981;51.022;-2.870;2023-07-28T07:25:28;3.40;;;1.38;;
78664;SDS011;67981;51.022;-2.870;2023-07-28T07:27:54;3.00;;;1.10;;
78664;SDS011;67981;51.022;-2.870;2023-07-28T07:30:19;2.80;;;1.48;;
78664;SDS011;67981;51.022;-2.870;2023-07-28T07:32:44;3.10;;;1.25;;
78664;SDS011;67981;51.022;-2.870;2023-07-28T07:35:10;2.85;;;1.20;;
78664;SDS011;67981;51.022;-2.870;2023-07-28T07:37:35;3.05;;;1.27;;
78664;SDS011;67981;51.022;-2.870;2023-07-28T07:40:01;3.03;;;1.60;;
78664;SDS011;67981;51.022;-2.870;2023-07-28T07:42:28;2.10;;;1.17;;
78664;SDS011;67981;51.022;-2.870;2023-07-28T07:45:04;2.13;;;1.23;;
78664;SDS011;67981;51.022;-2.870;2023-07-28T07:47:30;1.77;;;1.00;;
78664;SDS011;67981;51.022;-2.870;2023-07-28T07:49:55;3.50;;;1.15;;
78664;SDS011;67981;51.022;-2.870;2023-07-28T07:52:21;5.93;;;1.40;;
78664;SDS011;67981;51.022;-2.870;2023-07-28T07:54:46;1.93;;;1.00;;
78664;SDS011;67981;51.022;-2.870;2023-07-28T07:57:11;2.72;;;1.45;;
78664;SDS011;67981;51.022;-2.870;2023-07-28T07:59:37;1.92;;;1.05;;
78664;SDS011;67981;51.022;-2.870;2023-07-28T08:02:02;3.25;;;1.20;;
78664;SDS011;67981;51.022;-2.870;2023-07-28T08:04:28;2.78;;;1.90;;
78664;SDS011;67981;51.022;-2.870;2023-07-28T08:06:53;1.17;;;0.77;;
78664;SDS011;67981;51.022;-2.870;2023-07-28T08:09:19;2.47;;;1.02;;
78664;SDS011;67981;51.022;-2.870;2023-07-28T08:11:44;1.90;;;1.05;;
78664;SDS011;67981;51.022;-2.870;2023-07-28T08:14:10;1.88;;;0.85;;
78664;SDS011;67981;51.022;-2.870;2023-07-28T08:16:35;1.90;;;0.90;;
78664;SDS011;67981;51.022;-2.870;2023-07-28T08:19:00;1.40;;;0.88;;
78664;SDS011;67981;51.022;-2.870;2023-07-28T08:21:26;3.60;;;1.40;;
78664;SDS011;67981;51.022;-2.870;2023-07-28T08:23:51;3.03;;;1.42;;
78664;SDS011;67981;51.022;-2.870;2023-07-28T08:26:17;2.95;;;1.10;;
78664;SDS011;67981;51.022;-2.870;2023-07-28T08:28:42;2.13;;;1.50;;
78664;SDS011;67981;51.022;-2.870;2023-07-28T08:31:07;1.80;;;0.97;;
78664;SDS011;67981;51.022;-2.870;2023-07-28T08:33:33;2.40;;;1.05;;
78664;SDS011;67981;51.022;-2.870;2023-07-28T08:35:58;2.35;;;0.82;;
78664;SDS011;67981;51.022;-2.870;2023-07-28T08:38:24;2.05;;;1.10;;
78664;SDS011;67981;51.022;-2.870;2023-07-28T08:40:49;1.42;;;0.77;;
78664;SDS011;67981;51.022;-2.870;2023-07-28T08:43:14;1.65;;;1.05;;
78664;SDS011;67981;51.022;-2.870;2023-07-28T08:45:41;4.95;;;1.15;;
78664;SDS011;67981;51.022;-2.870;2023-07-28T08:48:06;1.75;;;0.98;;
78664;SDS011;67981;51.022;-2.870;2023-07-28T08:50:31;1.55;;;0.80;;
78664;SDS011;67981;51.022;-2.870;2023-07-28T08:52:58;2.00;;;1.45;;
78664;SDS011;67981;51.022;-2.870;2023-07-28T08:55:24;1.35;;;0.95;;
78664;SDS011;67981;51.022;-2.870;2023-07-28T08:57:50;1.65;;;1.20;;
78664;SDS011;67981;51.022;-2.870;2023-07-28T09:00:15;2.40;;;1.02;;
78664;SDS011;67981;51.022;-2.870;2023-07-28T09:02:42;1.48;;;0.90;;
78664;SDS011;67981;51.022;-2.870;2023-07-28T09:05:16;2.92;;;1.20;;
78664;SDS011;67981;51.022;-2.870;2023-07-28T09:07:45;2.17;;;1.35;;
78664;SDS011;67981;51.022;-2.870;2023-07-28T09:10:10;3.25;;;1.20;;
78664;SDS011;67981;51.022;-2.870;2023-07-28T09:12:43;3.53;;;1.40;;
78664;SDS011;67981;51.022;-2.870;2023-07-28T09:15:10;2.30;;;1.30;;
78664;SDS011;67981;51.022;-2.870;2023-07-28T09:17:40;1.90;;;0.90;;
78664;SDS011;67981;51.022;-2.870;2023-07-28T09:20:07;2.17;;;1.17;;
78664;SDS011;67981;51.022;-2.870;2023-07-28T09:22:37;3.03;;;1.13;;
78664;SDS011;67981;51.022;-2.870;2023-07-28T09:25:10;2.65;;;1.30;;
78664;SDS011;67981;51.022;-2.870;2023-07-28T09:27:37;3.22;;;1.20;;
78664;SDS011;67981;51.022;-2.870;2023-07-28T09:30:03;2.03;;;0.98;;
78664;SDS011;67981;51.022;-2.870;2023-07-28T09:32:30;2.08;;;0.90;;
78664;SDS011;67981;51.022;-2.870;2023-07-28T09:35:07;2.75;;;1.05;;
78664;SDS011;67981;51.022;-2.870;2023-07-28T09:37:36;4.20;;;1.48;;
78664;SDS011;67981;51.022;-2.870;2023-07-28T09:40:03;2.53;;;1.23;;
78664;SDS011;67981;51.022;-2.870;2023-07-28T09:42:30;3.13;;;1.65;;
78664;SDS011;67981;51.022;-2.870;2023-07-28T09:44:56;4.22;;;1.30;;
78664;SDS011;67981;51.022;-2.870;2023-07-28T09:47:21;2.33;;;1.10;;
78664;SDS011;67981;51.022;-2.870;2023-07-28T09:49:47;3.13;;;2.20;;
78664;SDS011;67981;51.022;-2.870;2023-07-28T09:52:15;2.08;;;1.10;;
78664;SDS011;67981;51.022;-2.870;2023-07-28T09:54:43;3.00;;;1.27;;
78664;SDS011;67981;51.022;-2.870;2023-07-28T09:57:14;2.30;;;1.15;;
78664;SDS011;67981;51.022;-2.870;2023-07-28T09:59:45;2.55;;;1.40;;
78664;SDS011;67981;51.022;-2.870;2023-07-28T10:02:12;3.03;;;1.60;;
78664;SDS011;67981;51.022;-2.870;2023-07-28T10:04:38;4.00;;;1.38;;
78664;SDS011;67981;51.022;-2.870;2023-07-28T10:07:05;3.28;;;1.55;;
78664;SDS011;67981;51.022;-2.870;2023-07-28T10:09:32;2.42;;;1.35;;
78664;SDS011;67981;51.022;-2.870;2023-07-28T10:11:58;3.53;;;1.75;;
78664;SDS011;67981;51.022;-2.870;2023-07-28T10:14:28;3.38;;;1.55;;
78664;SDS011;67981;51.022;-2.870;2023-07-28T10:16:56;2.90;;;1.58;;
78664;SDS011;67981;51.022;-2.870;2023-07-28T10:19:24;2.92;;;1.65;;
78664;SDS011;67981;51.022;-2.870;2023-07-28T10:21:58;3.22;;;1.33;;
78664;SDS011;67981;51.022;-2.870;2023-07-28T10:30:02;3.53;;;1.35;;
78664;SDS011;67981;51.022;-2.870;2023-07-28T10:32:36;2.30;;;1.42;;
78664;SDS011;67981;51.022;-2.870;2023-07-28T10:35:07;2.95;;;1.70;;
78664;SDS011;67981;51.022;-2.870;2023-07-28T10:37:34;3.75;;;1.63;;
78664;SDS011;67981;51.022;-2.870;2023-07-28T10:42:49;3.25;;;1.70;;
78664;SDS011;67981;51.022;-2.870;2023-07-28T10:45:16;3.03;;;1.63;;
78664;SDS011;67981;51.022;-2.870;2023-07-28T10:47:41;5.30;;;1.75;;
78664;SDS011;67981;51.022;-2.870;2023-07-28T10:50:10;3.65;;;1.50;;
78664;SDS011;67981;51.022;-2.870;2023-07-28T10:52:39;2.25;;;1.55;;
78664;SDS011;67981;51.022;-2.870;2023-07-28T10:55:11;3.67;;;1.83;;
78664;SDS011;67981;51.022;-2.870;2023-07-28T10:57:37;2.17;;;1.40;;
78664;SDS011;67981;51.022;-2.870;2023-07-28T11:00:03;2.42;;;1.30;;
78664;SDS011;67981;51.022;-2.870;2023-07-28T11:02:30;3.75;;;1.70;;
78664;SDS011;67981;51.022;-2.870;2023-07-28T11:04:57;1.95;;;1.27;;
78664;SDS011;67981;51.022;-2.870;2023-07-28T11:07:23;3.70;;;1.70;;
78664;SDS011;67981;51.022;-2.870;2023-07-28T11:09:49;2.63;;;1.55;;
78664;SDS011;67981;51.022;-2.870;2023-07-28T11:12:15;4.45;;;1.60;;
78664;SDS011;67981;51.022;-2.870;2023-07-28T11:14:41;2.80;;;1.48;;
78664;SDS011;67981;51.022;-2.870;2023-07-28T11:17:07;4.47;;;1.67;;
78664;SDS011;67981;51.022;-2.870;2023-07-28T11:19:33;3.50;;;1.30;;
78664;SDS011;67981;51.022;-2.870;2023-07-28T11:21:58;3.10;;;1.70;;
78664;SDS011;67981;51.022;-2.870;2023-07-28T11:24:24;3.70;;;1.65;;
78664;SDS011;67981;51.022;-2.870;2023-07-28T11:26:51;2.70;;;1.75;;
78664;SDS011;67981;51.022;-2.870;2023-07-28T11:29:18;1.80;;;1.25;;
78664;SDS011;67981;51.022;-2.870;2023-07-28T11:31:43;2.05;;;1.15;;
78664;SDS011;67981;51.022;-2.870;2023-07-28T11:34:18;2.13;;;1.48;;
78664;SDS011;67981;51.022;-2.870;2023-07-28T11:36:44;2.15;;;1.15;;
78664;SDS011;67981;51.022;-2.870;2023-07-28T11:39:10;2.72;;;1.50;;
78664;SDS011;67981;51.022;-2.870;2023-07-28T11:41:36;4.32;;;1.35;;
78664;SDS011;67981;51.022;-2.870;2023-07-28T11:44:02;3.17;;;1.77;;
78664;SDS011;67981;51.022;-2.870;2023-07-28T11:49:26;2.75;;;1.55;;
78664;SDS011;67981;51.022;-2.870;2023-07-28T11:51:52;4.07;;;1.65;;
78664;SDS011;67981;51.022;-2.870;2023-07-28T11:54:20;3.38;;;1.48;;
78664;SDS011;67981;51.022;-2.870;2023-07-28T11:56:47;2.45;;;1.10;;
78664;SDS011;67981;51.022;-2.870;2023-07-28T11:59:17;3.35;;;1.35;;
78664;SDS011;67981;51.022;-2.870;2023-07-28T12:04:20;2.55;;;1.38;;
78664;SDS011;67981;51.022;-2.870;2023-07-28T12:07:03;2.58;;;1.58;;
78664;SDS011;67981;51.022;-2.870;2023-07-28T12:09:31;2.53;;;1.58;;
78664;SDS011;67981;51.022;-2.870;2023-07-28T12:12:00;2.75;;;1.73;;
78664;SDS011;67981;51.022;-2.870;2023-07-28T12:14:34;3.40;;;1.73;;
78664;SDS011;67981;51.022;-2.870;2023-07-28T12:17:00;3.00;;;1.52;;
78664;SDS011;67981;51.022;-2.870;2023-07-28T12:19:27;2.40;;;1.50;;
78664;SDS011;67981;51.022;-2.870;2023-07-28T12:21:53;3.80;;;1.63;;
78664;SDS011;67981;51.022;-2.870;2023-07-28T12:24:18;2.55;;;1.52;;
78664;SDS011;67981;51.022;-2.870;2023-07-28T12:26:45;3.67;;;1.60;;
78664;SDS011;67981;51.022;-2.870;2023-07-28T12:29:12;2.35;;;1.77;;
78664;SDS011;67981;51.022;-2.870;2023-07-28T12:31:38;2.30;;;1.67;;
78664;SDS011;67981;51.022;-2.870;2023-07-28T12:34:04;3.70;;;1.65;;
78664;SDS011;67981;51.022;-2.870;2023-07-28T12:36:29;2.67;;;1.43;;
78664;SDS011;67981;51.022;-2.870;2023-07-28T12:38:55;4.45;;;1.83;;
78664;SDS011;67981;51.022;-2.870;2023-07-28T12:41:20;2.33;;;1.50;;
78664;SDS011;67981;51.022;-2.870;2023-07-28T12:43:45;4.30;;;1.48;;
78664;SDS011;67981;51.022;-2.870;2023-07-28T12:46:11;2.53;;;1.20;;
78664;SDS011;67981;51.022;-2.870;2023-07-28T12:48:37;2.17;;;0.98;;
78664;SDS011;67981;51.022;-2.870;2023-07-28T12:51:02;2.17;;;1.10;;
78664;SDS011;67981;51.022;-2.870;2023-07-28T12:53:28;1.77;;;1.10;;
78664;SDS011;67981;51.022;-2.870;2023-07-28T12:55:53;2.22;;;1.27;;
78664;SDS011;67981;51.022;-2.870;2023-07-28T12:58:20;1.90;;;0.90;;
78664;SDS011;67981;51.022;-2.870;2023-07-28T13:00:45;2.53;;;1.00;;
78664;SDS011;67981;51.022;-2.870;2023-07-28T13:03:10;2.75;;;0.70;;
78664;SDS011;67981;51.022;-2.870;2023-07-28T13:05:36;3.20;;;1.23;;
78664;SDS011;67981;51.022;-2.870;2023-07-28T13:08:02;3.13;;;0.85;;
78664;SDS011;67981;51.022;-2.870;2023-07-28T13:10:27;2.05;;;1.05;;
78664;SDS011;67981;51.022;-2.870;2023-07-28T13:12:52;2.78;;;1.48;;
78664;SDS011;67981;51.022;-2.870;2023-07-28T13:15:18;1.90;;;1.00;;
78664;SDS011;67981;51.022;-2.870;2023-07-28T13:17:43;2.55;;;1.23;;
78664;SDS011;67981;51.022;-2.870;2023-07-28T13:20:08;2.78;;;1.27;;
78664;SDS011;67981;51.022;-2.870;2023-07-28T13:22:35;1.58;;;0.98;;
78664;SDS011;67981;51.022;-2.870;2023-07-28T13:25:01;3.33;;;1.23;;
78664;SDS011;67981;51.022;-2.870;2023-07-28T13:27:27;1.85;;;0.82;;
78664;SDS011;67981;51.022;-2.870;2023-07-28T13:29:53;2.45;;;1.00;;
78664;SDS011;67981;51.022;-2.870;2023-07-28T13:32:22;2.67;;;1.27;;
78664;SDS011;67981;51.022;-2.870;2023-07-28T13:34:49;2.25;;;1.38;;
78664;SDS011;67981;51.022;-2.870;2023-07-28T13:37:15;2.80;;;1.45;;
78664;SDS011;67981;51.022;-2.870;2023-07-28T13:39:41;2.58;;;0.82;;
78664;SDS011;67981;51.022;-2.870;2023-07-28T13:42:07;2.05;;;1.20;;
78664;SDS011;67981;51.022;-2.870;2023-07-28T13:44:33;2.42;;;1.15;;
78664;SDS011;67981;51.022;-2.870;2023-07-28T13:46:58;2.25;;;1.17;;
78664;SDS011;67981;51.022;-2.870;2023-07-28T13:49:24;2.72;;;1.65;;
78664;SDS011;67981;51.022;-2.870;2023-07-28T13:51:50;3.85;;;1.58;;
78664;SDS011;67981;51.022;-2.870;2023-07-28T13:54:16;2.75;;;1.52;;
78664;SDS011;67981;51.022;-2.870;2023-07-28T13:56:41;2.10;;;1.70;;
78664;SDS011;67981;51.022;-2.870;2023-07-28T13:59:06;3.72;;;1.25;;
78664;SDS011;67981;51.022;-2.870;2023-07-28T14:01:32;5.32;;;1.58;;
78664;SDS011;67981;51.022;-2.870;2023-07-28T14:03:57;3.10;;;1.40;;
78664;SDS011;67981;51.022;-2.870;2023-07-28T14:06:22;2.22;;;1.33;;
78664;SDS011;67981;51.022;-2.870;2023-07-28T14:08:48;4.15;;;1.50;;
78664;SDS011;67981;51.022;-2.870;2023-07-28T14:11:13;4.18;;;1.58;;
78664;SDS011;67981;51.022;-2.870;2023-07-28T14:13:39;2.28;;;1.02;;
78664;SDS011;67981;51.022;-2.870;2023-07-28T14:16:04;3.75;;;1.27;;
78664;SDS011;67981;51.022;-2.870;2023-07-28T14:18:30;2.63;;;1.25;;
78664;SDS011;67981;51.022;-2.870;2023-07-28T14:20:55;4.03;;;1.77;;
78664;SDS011;67981;51.022;-2.870;2023-07-28T14:23:22;2.40;;;1.00;;
78664;SDS011;67981;51.022;-2.870;2023-07-28T14:28:14;1.98;;;1.30;;
78664;SDS011;67981;51.022;-2.870;2023-07-28T14:30:40;2.72;;;1.60;;
78664;SDS011;67981;51.022;-2.870;2023-07-28T14:33:06;2.45;;;1.20;;
78664;SDS011;67981;51.022;-2.870;2023-07-28T14:35:31;2.47;;;1.25;;
78664;SDS011;67981;51.022;-2.870;2023-07-28T14:37:57;3.90;;;1.38;;
78664;SDS011;67981;51.022;-2.870;2023-07-28T14:40:22;3.95;;;1.50;;
78664;SDS011;67981;51.022;-2.870;2023-07-28T14:42:47;2.42;;;1.25;;
78664;SDS011;67981;51.022;-2.870;2023-07-28T14:45:13;3.60;;;1.27;;
78664;SDS011;67981;51.022;-2.870;2023-07-28T14:47:38;3.05;;;1.10;;
78664;SDS011;67981;51.022;-2.870;2023-07-28T14:50:04;4.90;;;1.33;;
78664;SDS011;67981;51.022;-2.870;2023-07-28T14:52:29;4.18;;;1.20;;